sensor_id;sensor_type;location;lat;lon;timestamp;pressure;altitude;pressure_sealevel;temperature;humidity
24996;BME280;13016;52.162;21.034;2022-12-29T00:08:38;100213.16;;;11.13;50.58
24996;BME280;13016;52.162;21.034;2022-12-29T00:22:19;100198.65;;;11.01;50.52
24996;BME280;13016;52.162;21.034;2022-12-29T00:24:49;100202.54;;;11.01;50.70
24996;BME280;13016;52.162;21.034;2022-12-29T00:27:14;100200.30;;;10.84;50.85
24996;BME280;13016;52.162;21.034;2022-12-29T00:29:47;100204.78;;;11.01;51.22
24996;BME280;13016;52.162;21.034;2022-12-29T00:32:12;100203.89;;;11.12;50.79
24996;BME280;13016;52.162;21.034;2022-12-29T00:34:40;100205.89;;;11.19;50.83
24996;BME280;13016;52.162;21.034;2022-12-29T00:37:09;100211.65;;;11.30;51.07
24996;BME280;13016;52.162;21.034;2022-12-29T00:39:37;100205.85;;;11.27;50.43
24996;BME280;13016;52.162;21.034;2022-12-29T00:42:09;100208.49;;;11.30;50.60
24996;BME280;13016;52.162;21.034;2022-12-29T00:44:38;100209.20;;;11.04;50.40
24996;BME280;13016;52.162;21.034;2022-12-29T00:47:06;100211.40;;;11.02;50.74
24996;BME280;13016;52.162;21.034;2022-12-29T00:49:34;100217.21;;;10.98;50.85
24996;BME280;13016;52.162;21.034;2022-12-29T00:52:08;100213.81;;;10.79;51.02
24996;BME280;13016;52.162;21.034;2022-12-29T00:54:41;100212.25;;;10.95;51.35
24996;BME280;13016;52.162;21.034;2022-12-29T00:57:10;100212.58;;;10.87;50.95
24996;BME280;13016;52.162;21.034;2022-12-29T00:59:36;100205.38;;;10.92;51.24
24996;BME280;13016;52.162;21.034;2022-12-29T01:02:05;100202.31;;;10.93;51.03
24996;BME280;13016;52.162;21.034;2022-12-29T01:04:47;100204.68;;;10.92;50.85
24996;BME280;13016;52.162;21.034;2022-12-29T01:07:15;100205.02;;;10.90;51.33
24996;BME280;13016;52.162;21.034;2022-12-29T01:15:22;100189.13;;;10.57;51.27
24996;BME280;13016;52.162;21.034;2022-12-29T01:20:38;100185.88;;;10.42;51.80
24996;BME280;13016;52.162;21.034;2022-12-29T01:23:07;100182.38;;;10.72;51.59
24996;BME280;13016;52.162;21.034;2022-12-29T01:25:35;100180.42;;;10.72;51.13
24996;BME280;13016;52.162;21.034;2022-12-29T01:28:00;100169.80;;;10.86;51.23
24996;BME280;13016;52.162;21.034;2022-12-29T01:30:28;100166.61;;;10.86;50.76
24996;BME280;13016;52.162;21.034;2022-12-29T01:32:57;100171.92;;;10.70;50.82
24996;BME280;13016;52.162;21.034;2022-12-29T01:35:26;100169.11;;;10.78;50.78
24996;BME280;13016;52.162;21.034;2022-12-29T01:37:54;100164.08;;;10.71;50.80
24996;BME280;13016;52.162;21.034;2022-12-29T01:40:19;100156.50;;;10.49;51.12
24996;BME280;13016;52.162;21.034;2022-12-29T01:42:52;100153.14;;;10.63;51.05
24996;BME280;13016;52.162;21.034;2022-12-29T01:45:21;100144.73;;;10.78;50.59
24996;BME280;13016;52.162;21.034;2022-12-29T01:47:59;100136.23;;;10.62;50.60
24996;BME280;13016;52.162;21.034;2022-12-29T01:50:39;100141.52;;;10.49;51.20
24996;BME280;13016;52.162;21.034;2022-12-29T01:53:18;100141.70;;;10.87;50.78
24996;BME280;13016;52.162;21.034;2022-12-29T01:56:07;100136.41;;;10.92;50.27
24996;BME280;13016;52.162;21.034;2022-12-29T01:58:38;100139.19;;;10.95;50.29
24996;BME280;13016;52.162;21.034;2022-12-29T02:01:07;100136.42;;;11.10;50.34
24996;BME280;13016;52.162;21.034;2022-12-29T02:03:36;100135.81;;;10.96;49.94
24996;BME280;13016;52.162;21.034;2022-12-29T02:06:12;100138.73;;;10.94;49.80
24996;BME280;13016;52.162;21.034;2022-12-29T02:08:42;100133.16;;;11.03;50.02
24996;BME280;13016;52.162;21.034;2022-12-29T02:11:11;100129.20;;;10.81;50.07
24996;BME280;13016;52.162;21.034;2022-12-29T02:13:39;100126.45;;;10.69;50.47
24996;BME280;13016;52.162;21.034;2022-12-29T02:16:29;100125.30;;;10.71;50.78
24996;BME280;13016;52.162;21.034;2022-12-29T02:19:19;100111.95;;;10.66;50.49
24996;BME280;13016;52.162;21.034;2022-12-29T02:28:04;100117.82;;;10.74;51.01
24996;BME280;13016;52.162;21.034;2022-12-29T02:30:27;100126.50;;;10.76;50.98
24996;BME280;13016;52.162;21.034;2022-12-29T02:36:24;100127.02;;;10.55;51.28
24996;BME280;13016;52.162;21.034;2022-12-29T02:49:59;100138.02;;;10.60;52.22
24996;BME280;13016;52.162;21.034;2022-12-29T02:52:31;100143.52;;;10.59;52.60
24996;BME280;13016;52.162;21.034;2022-12-29T02:55:05;100139.23;;;10.68;52.71
24996;BME280;13016;52.162;21.034;2022-12-29T02:57:34;100141.31;;;10.44;53.28
24996;BME280;13016;52.162;21.034;2022-12-29T03:00:09;100142.46;;;10.31;54.19
24996;BME280;13016;52.162;21.034;2022-12-29T03:11:12;100145.98;;;10.34;55.80
24996;BME280;13016;52.162;21.034;2022-12-29T03:13:47;100150.62;;;10.39;56.04
24996;BME280;13016;52.162;21.034;2022-12-29T03:16:21;100149.98;;;10.40;56.04
24996;BME280;13016;52.162;21.034;2022-12-29T03:19:07;100150.27;;;10.05;56.78
24996;BME280;13016;52.162;21.034;2022-12-29T03:21:47;100146.33;;;10.06;57.19
24996;BME280;13016;52.162;21.034;2022-12-29T03:24:16;100140.00;;;9.89;57.56
24996;BME280;13016;52.162;21.034;2022-12-29T03:26:43;100133.29;;;9.92;57.78
24996;BME280;13016;52.162;21.034;2022-12-29T03:29:10;100125.70;;;9.87;57.93
24996;BME280;13016;52.162;21.034;2022-12-29T03:31:38;100127.02;;;9.91;57.90
24996;BME280;13016;52.162;21.034;2022-12-29T03:34:05;100118.87;;;9.46;59.07
24996;BME280;13016;52.162;21.034;2022-12-29T03:36:38;100109.20;;;9.69;58.88
24996;BME280;13016;52.162;21.034;2022-12-29T03:39:13;100106.19;;;9.61;59.02
24996;BME280;13016;52.162;21.034;2022-12-29T03:41:40;100110.55;;;9.58;59.12
24996;BME280;13016;52.162;21.034;2022-12-29T03:44:07;100090.27;;;9.53;58.99
24996;BME280;13016;52.162;21.034;2022-12-29T03:46:32;100078.44;;;9.34;59.28
24996;BME280;13016;52.162;21.034;2022-12-29T03:48:57;100061.40;;;9.33;59.82
24996;BME280;13016;52.162;21.034;2022-12-29T03:51:23;100055.72;;;9.31;59.87
24996;BME280;13016;52.162;21.034;2022-12-29T03:53:48;100055.75;;;9.27;59.48
24996;BME280;13016;52.162;21.034;2022-12-29T03:56:13;100074.28;;;9.24;60.05
24996;BME280;13016;52.162;21.034;2022-12-29T03:58:38;100079.10;;;9.32;59.78
24996;BME280;13016;52.162;21.034;2022-12-29T04:01:04;100075.52;;;9.39;59.75
24996;BME280;13016;52.162;21.034;2022-12-29T04:03:29;100064.33;;;9.11;59.95
24996;BME280;13016;52.162;21.034;2022-12-29T04:05:55;100057.60;;;8.79;60.71
24996;BME280;13016;52.162;21.034;2022-12-29T04:08:23;100057.52;;;8.99;60.53
24996;BME280;13016;52.162;21.034;2022-12-29T04:10:49;100054.75;;;9.00;60.18
24996;BME280;13016;52.162;21.034;2022-12-29T04:13:17;100052.04;;;9.02;60.39
24996;BME280;13016;52.162;21.034;2022-12-29T04:15:46;100050.80;;;8.99;60.00
24996;BME280;13016;52.162;21.034;2022-12-29T04:18:14;100057.35;;;9.01;60.15
24996;BME280;13016;52.162;21.034;2022-12-29T04:20:44;100058.98;;;9.14;60.12
24996;BME280;13016;52.162;21.034;2022-12-29T04:23:10;100048.84;;;9.14;59.91
24996;BME280;13016;52.162;21.034;2022-12-29T04:25:38;100059.18;;;9.17;59.47
24996;BME280;13016;52.162;21.034;2022-12-29T04:28:10;100050.34;;;9.04;59.66
24996;BME280;13016;52.162;21.034;2022-12-29T04:30:38;100054.34;;;8.96;60.05
24996;BME280;13016;52.162;21.034;2022-12-29T04:33:07;100059.10;;;9.04;59.86
24996;BME280;13016;52.162;21.034;2022-12-29T04:35:32;100064.59;;;9.30;59.29
24996;BME280;13016;52.162;21.034;2022-12-29T04:38:01;100070.18;;;9.36;59.04
24996;BME280;13016;52.162;21.034;2022-12-29T04:40:29;100060.77;;;9.14;59.27
24996;BME280;13016;52.162;21.034;2022-12-29T04:43:00;100045.19;;;9.05;59.13
24996;BME280;13016;52.162;21.034;2022-12-29T04:45:28;100024.08;;;8.66;60.09
24996;BME280;13016;52.162;21.034;2022-12-29T04:47:53;100020.25;;;8.57;60.48
24996;BME280;13016;52.162;21.034;2022-12-29T04:50:18;100026.83;;;8.62;60.41
24996;BME280;13016;52.162;21.034;2022-12-29T04:52:44;100031.14;;;8.87;59.75
24996;BME280;13016;52.162;21.034;2022-12-29T04:55:09;100036.80;;;9.00;59.38
24996;BME280;13016;52.162;21.034;2022-12-29T04:57:34;100038.02;;;9.12;58.76
24996;BME280;13016;52.162;21.034;2022-12-29T04:59:59;100032.14;;;8.96;58.61
24996;BME280;13016;52.162;21.034;2022-12-29T05:02:25;100026.64;;;9.08;58.09
24996;BME280;13016;52.162;21.034;2022-12-29T05:04:53;100022.80;;;9.03;57.78
24996;BME280;13016;52.162;21.034;2022-12-29T05:07:21;100020.33;;;9.05;57.61
24996;BME280;13016;52.162;21.034;2022-12-29T05:09:49;100017.12;;;8.94;57.76
24996;BME280;13016;52.162;21.034;2022-12-29T05:12:15;100009.06;;;9.00;57.47
24996;BME280;13016;52.162;21.034;2022-12-29T05:14:47;100009.15;;;9.07;57.11
24996;BME280;13016;52.162;21.034;2022-12-29T05:17:15;100009.48;;;8.93;57.13
24996;BME280;13016;52.162;21.034;2022-12-29T05:19:43;100005.35;;;8.91;57.07
24996;BME280;13016;52.162;21.034;2022-12-29T05:22:12;100004.92;;;8.87;57.04
24996;BME280;13016;52.162;21.034;2022-12-29T05:24:40;100007.79;;;9.12;56.47
24996;BME280;13016;52.162;21.034;2022-12-29T05:27:13;100007.28;;;9.15;56.45
24996;BME280;13016;52.162;21.034;2022-12-29T05:29:41;100003.09;;;9.37;55.89
24996;BME280;13016;52.162;21.034;2022-12-29T05:32:09;100004.83;;;9.17;55.97
24996;BME280;13016;52.162;21.034;2022-12-29T05:34:38;100002.06;;;9.13;55.93
24996;BME280;13016;52.162;21.034;2022-12-29T05:37:06;99998.56;;;9.04;56.00
24996;BME280;13016;52.162;21.034;2022-12-29T05:39:34;99993.10;;;8.99;56.09
24996;BME280;13016;52.162;21.034;2022-12-29T05:44:53;99968.64;;;8.67;56.28
24996;BME280;13016;52.162;21.034;2022-12-29T05:47:21;99964.47;;;8.84;56.16
24996;BME280;13016;52.162;21.034;2022-12-29T05:49:50;99966.95;;;8.92;55.29
24996;BME280;13016;52.162;21.034;2022-12-29T05:52:25;99970.56;;;9.05;54.99
24996;BME280;13016;52.162;21.034;2022-12-29T05:54:53;99970.35;;;8.97;54.93
24996;BME280;13016;52.162;21.034;2022-12-29T05:57:40;99973.74;;;8.79;55.00
24996;BME280;13016;52.162;21.034;2022-12-29T06:00:08;99981.64;;;8.99;54.82
24996;BME280;13016;52.162;21.034;2022-12-29T06:02:37;99983.20;;;9.23;54.30
24996;BME280;13016;52.162;21.034;2022-12-29T06:05:05;99985.69;;;9.37;54.21
24996;BME280;13016;52.162;21.034;2022-12-29T06:07:36;99987.86;;;9.41;53.88
24996;BME280;13016;52.162;21.034;2022-12-29T06:10:08;99989.64;;;9.21;53.80
24996;BME280;13016;52.162;21.034;2022-12-29T06:12:36;99990.67;;;9.47;53.94
24996;BME280;13016;52.162;21.034;2022-12-29T06:15:01;99986.09;;;9.75;52.87
24996;BME280;13016;52.162;21.034;2022-12-29T06:17:30;99978.13;;;9.64;52.42
24996;BME280;13016;52.162;21.034;2022-12-29T06:19:55;99981.45;;;9.73;52.44
24996;BME280;13016;52.162;21.034;2022-12-29T06:22:20;99986.70;;;9.92;52.20
24996;BME280;13016;52.162;21.034;2022-12-29T06:24:45;99996.77;;;10.05;51.63
24996;BME280;13016;52.162;21.034;2022-12-29T06:27:17;99991.76;;;10.18;51.35
24996;BME280;13016;52.162;21.034;2022-12-29T06:29:42;99986.89;;;9.89;51.27
24996;BME280;13016;52.162;21.034;2022-12-29T06:32:07;99987.40;;;9.89;51.38
24996;BME280;13016;52.162;21.034;2022-12-29T06:34:33;99990.00;;;9.95;51.23
24996;BME280;13016;52.162;21.034;2022-12-29T06:39:47;99988.80;;;10.20;51.17
24996;BME280;13016;52.162;21.034;2022-12-29T06:42:15;99992.59;;;9.83;51.82
24996;BME280;13016;52.162;21.034;2022-12-29T06:44:43;99996.68;;;10.04;51.98
24996;BME280;13016;52.162;21.034;2022-12-29T06:47:16;99994.39;;;10.10;51.41
24996;BME280;13016;52.162;21.034;2022-12-29T06:49:51;99995.33;;;9.92;51.66
24996;BME280;13016;52.162;21.034;2022-12-29T06:52:19;99998.95;;;9.88;52.10
24996;BME280;13016;52.162;21.034;2022-12-29T06:54:52;100002.61;;;10.02;51.60
24996;BME280;13016;52.162;21.034;2022-12-29T06:57:20;100002.00;;;9.93;51.41
24996;BME280;13016;52.162;21.034;2022-12-29T06:59:52;100003.36;;;9.77;51.57
24996;BME280;13016;52.162;21.034;2022-12-29T07:02:20;99998.02;;;9.72;51.77
24996;BME280;13016;52.162;21.034;2022-12-29T07:04:48;99996.95;;;9.87;51.56
24996;BME280;13016;52.162;21.034;2022-12-29T07:07:17;99998.40;;;9.75;51.36
24996;BME280;13016;52.162;21.034;2022-12-29T07:09:46;99991.52;;;9.80;51.93
24996;BME280;13016;52.162;21.034;2022-12-29T07:12:14;99985.45;;;9.93;51.49
24996;BME280;13016;52.162;21.034;2022-12-29T07:14:42;99986.98;;;10.15;51.40
24996;BME280;13016;52.162;21.034;2022-12-29T07:19:58;99978.84;;;9.80;51.36
24996;BME280;13016;52.162;21.034;2022-12-29T07:22:30;99976.95;;;9.71;51.43
24996;BME280;13016;52.162;21.034;2022-12-29T07:24:58;99984.05;;;9.90;51.10
24996;BME280;13016;52.162;21.034;2022-12-29T07:27:26;99984.83;;;9.91;51.21
24996;BME280;13016;52.162;21.034;2022-12-29T07:29:55;99985.20;;;10.15;50.81
24996;BME280;13016;52.162;21.034;2022-12-29T07:32:23;99979.46;;;10.12;50.54
24996;BME280;13016;52.162;21.034;2022-12-29T07:34:51;99980.08;;;10.10;50.38
24996;BME280;13016;52.162;21.034;2022-12-29T07:37:20;99980.23;;;10.19;50.35
24996;BME280;13016;52.162;21.034;2022-12-29T07:39:48;99981.35;;;10.04;50.59
24996;BME280;13016;52.162;21.034;2022-12-29T07:42:13;99985.42;;;10.28;50.71
24996;BME280;13016;52.162;21.034;2022-12-29T07:44:42;99982.80;;;10.36;50.20
24996;BME280;13016;52.162;21.034;2022-12-29T07:47:10;99980.96;;;10.29;50.24
24996;BME280;13016;52.162;21.034;2022-12-29T07:49:38;99982.52;;;10.37;50.34
24996;BME280;13016;52.162;21.034;2022-12-29T07:52:10;99984.44;;;10.35;50.17
24996;BME280;13016;52.162;21.034;2022-12-29T07:54:43;99984.43;;;10.46;49.99
24996;BME280;13016;52.162;21.034;2022-12-29T07:57:17;99981.74;;;10.33;49.98
24996;BME280;13016;52.162;21.034;2022-12-29T07:59:47;99979.46;;;10.49;50.36
24996;BME280;13016;52.162;21.034;2022-12-29T08:02:19;99980.00;;;10.70;50.17
24996;BME280;13016;52.162;21.034;2022-12-29T08:04:48;99974.17;;;10.70;49.64
24996;BME280;13016;52.162;21.034;2022-12-29T08:07:20;99968.21;;;10.67;49.72
24996;BME280;13016;52.162;21.034;2022-12-29T08:09:49;99966.88;;;10.63;49.48
24996;BME280;13016;52.162;21.034;2022-12-29T08:12:22;99959.67;;;10.86;49.54
24996;BME280;13016;52.162;21.034;2022-12-29T08:14:55;99959.46;;;10.91;49.06
24996;BME280;13016;52.162;21.034;2022-12-29T08:17:27;99959.77;;;10.92;49.24
24996;BME280;13016;52.162;21.034;2022-12-29T08:19:56;99954.00;;;10.68;48.87
24996;BME280;13016;52.162;21.034;2022-12-29T08:22:28;99952.98;;;10.49;49.36
24996;BME280;13016;52.162;21.034;2022-12-29T08:24:57;99952.64;;;10.67;49.31
24996;BME280;13016;52.162;21.034;2022-12-29T08:27:39;99948.70;;;10.84;49.10
24996;BME280;13016;52.162;21.034;2022-12-29T08:30:08;99947.10;;;10.79;48.80
24996;BME280;13016;52.162;21.034;2022-12-29T08:32:36;99948.69;;;11.04;48.47
24996;BME280;13016;52.162;21.034;2022-12-29T08:35:05;99948.02;;;11.06;48.09
24996;BME280;13016;52.162;21.034;2022-12-29T08:37:50;99954.91;;;11.03;48.20
24996;BME280;13016;52.162;21.034;2022-12-29T08:40:18;99951.95;;;11.08;47.82
24996;BME280;13016;52.162;21.034;2022-12-29T08:42:48;99950.95;;;11.19;47.98
24996;BME280;13016;52.162;21.034;2022-12-29T08:45:17;99959.92;;;11.27;47.77
24996;BME280;13016;52.162;21.034;2022-12-29T08:47:45;99966.25;;;11.37;47.67
24996;BME280;13016;52.162;21.034;2022-12-29T08:50:15;99973.13;;;11.32;47.63
24996;BME280;13016;52.162;21.034;2022-12-29T08:52:45;99979.52;;;11.32;47.60
24996;BME280;13016;52.162;21.034;2022-12-29T08:55:17;99974.80;;;11.46;47.51
24996;BME280;13016;52.162;21.034;2022-12-29T08:57:46;99979.59;;;11.41;47.48
24996;BME280;13016;52.162;21.034;2022-12-29T09:00:14;99973.40;;;11.41;47.48
24996;BME280;13016;52.162;21.034;2022-12-29T09:02:43;99965.76;;;11.64;47.32
24996;BME280;13016;52.162;21.034;2022-12-29T09:05:11;99968.73;;;11.65;46.89
24996;BME280;13016;52.162;21.034;2022-12-29T09:07:40;99972.10;;;11.37;47.07
24996;BME280;13016;52.162;21.034;2022-12-29T09:10:08;99970.21;;;11.54;47.06
24996;BME280;13016;52.162;21.034;2022-12-29T09:12:40;99963.60;;;11.42;47.00
24996;BME280;13016;52.162;21.034;2022-12-29T09:15:25;99966.31;;;11.37;47.33
24996;BME280;13016;52.162;21.034;2022-12-29T09:17:53;99961.41;;;11.63;47.46
24996;BME280;13016;52.162;21.034;2022-12-29T09:20:22;99963.19;;;11.88;47.05
24996;BME280;13016;52.162;21.034;2022-12-29T09:22:50;99961.34;;;11.94;46.43
24996;BME280;13016;52.162;21.034;2022-12-29T09:25:24;99959.09;;;11.91;46.56
24996;BME280;13016;52.162;21.034;2022-12-29T09:27:52;99955.19;;;11.88;46.80
24996;BME280;13016;52.162;21.034;2022-12-29T09:30:23;99955.23;;;11.97;46.60
24996;BME280;13016;52.162;21.034;2022-12-29T09:32:52;99953.95;;;11.88;46.50
24996;BME280;13016;52.162;21.034;2022-12-29T09:35:20;99956.45;;;11.88;46.47
24996;BME280;13016;52.162;21.034;2022-12-29T09:37:51;99949.39;;;11.79;46.55
24996;BME280;13016;52.162;21.034;2022-12-29T09:40:27;99950.31;;;11.90;46.56
24996;BME280;13016;52.162;21.034;2022-12-29T09:48:44;99951.08;;;11.96;46.42
24996;BME280;13016;52.162;21.034;2022-12-29T09:51:22;99945.30;;;12.10;46.61
24996;BME280;13016;52.162;21.034;2022-12-29T09:53:57;99943.40;;;12.16;46.27
24996;BME280;13016;52.162;21.034;2022-12-29T09:56:30;99939.77;;;12.20;46.07
24996;BME280;13016;52.162;21.034;2022-12-29T09:59:15;99933.31;;;12.02;46.62
24996;BME280;13016;52.162;21.034;2022-12-29T10:01:57;99927.00;;;12.18;46.55
24996;BME280;13016;52.162;21.034;2022-12-29T10:04:27;99928.90;;;12.28;45.97
24996;BME280;13016;52.162;21.034;2022-12-29T10:07:05;99927.75;;;12.10;46.13
24996;BME280;13016;52.162;21.034;2022-12-29T10:15:40;99921.63;;;12.28;46.32
24996;BME280;13016;52.162;21.034;2022-12-29T10:24:28;99916.02;;;12.44;46.34
24996;BME280;13016;52.162;21.034;2022-12-29T10:27:00;99911.86;;;12.38;45.84
24996;BME280;13016;52.162;21.034;2022-12-29T10:29:37;99907.48;;;12.33;45.89
24996;BME280;13016;52.162;21.034;2022-12-29T10:32:29;99905.63;;;12.38;45.67
24996;BME280;13016;52.162;21.034;2022-12-29T10:35:05;99896.41;;;12.34;45.71
24996;BME280;13016;52.162;21.034;2022-12-29T10:37:56;99897.42;;;12.41;46.03
24996;BME280;13016;52.162;21.034;2022-12-29T10:40:49;99901.19;;;12.30;45.83
24996;BME280;13016;52.162;21.034;2022-12-29T10:51:26;99890.34;;;12.46;45.78
24996;BME280;13016;52.162;21.034;2022-12-29T10:54:54;99887.48;;;12.40;45.61
24996;BME280;13016;52.162;21.034;2022-12-29T10:57:13;99888.86;;;12.59;45.60
24996;BME280;13016;52.162;21.034;2022-12-29T10:59:41;99883.39;;;12.38;45.41
24996;BME280;13016;52.162;21.034;2022-12-29T11:04:53;99876.39;;;12.41;45.76
24996;BME280;13016;52.162;21.034;2022-12-29T11:07:20;99879.04;;;12.67;46.04
24996;BME280;13016;52.162;21.034;2022-12-29T11:09:46;99880.79;;;12.85;45.53
24996;BME280;13016;52.162;21.034;2022-12-29T11:23:21;99882.03;;;12.92;44.87
24996;BME280;13016;52.162;21.034;2022-12-29T11:28:30;99871.70;;;12.84;44.88
24996;BME280;13016;52.162;21.034;2022-12-29T11:30:59;99873.48;;;12.95;45.38
24996;BME280;13016;52.162;21.034;2022-12-29T11:44:41;99876.45;;;12.68;45.32
24996;BME280;13016;52.162;21.034;2022-12-29T11:47:10;99878.02;;;12.75;45.54
24996;BME280;13016;52.162;21.034;2022-12-29T11:49:37;99874.77;;;12.81;45.37
24996;BME280;13016;52.162;21.034;2022-12-29T11:52:03;99874.80;;;13.01;45.39
24996;BME280;13016;52.162;21.034;2022-12-29T11:54:32;99876.85;;;12.95;45.36
24996;BME280;13016;52.162;21.034;2022-12-29T11:57:09;99870.52;;;12.86;45.28
24996;BME280;13016;52.162;21.034;2022-12-29T11:59:40;99877.48;;;12.98;45.47
24996;BME280;13016;52.162;21.034;2022-12-29T12:02:21;99877.55;;;13.02;45.35
24996;BME280;13016;52.162;21.034;2022-12-29T12:04:49;99875.14;;;13.10;45.29
24996;BME280;13016;52.162;21.034;2022-12-29T12:07:36;99868.00;;;13.04;45.57
24996;BME280;13016;52.162;21.034;2022-12-29T12:10:05;99868.97;;;12.96;45.21
24996;BME280;13016;52.162;21.034;2022-12-29T12:12:35;99865.46;;;13.09;45.67
24996;BME280;13016;52.162;21.034;2022-12-29T12:17:57;99864.71;;;13.47;44.90
24996;BME280;13016;52.162;21.034;2022-12-29T12:20:42;99864.25;;;13.35;45.14
24996;BME280;13016;52.162;21.034;2022-12-29T12:23:28;99869.65;;;13.47;45.42
24996;BME280;13016;52.162;21.034;2022-12-29T12:26:13;99863.61;;;13.39;45.14
24996;BME280;13016;52.162;21.034;2022-12-29T12:45:51;99843.92;;;13.52;45.19
24996;BME280;13016;52.162;21.034;2022-12-29T12:51:23;99831.94;;;13.60;45.27
24996;BME280;13016;52.162;21.034;2022-12-29T12:59:46;99827.62;;;13.73;44.99
24996;BME280;13016;52.162;21.034;2022-12-29T13:10:54;99828.67;;;13.71;44.97
24996;BME280;13016;52.162;21.034;2022-12-29T13:19:15;99842.24;;;14.00;45.27
24996;BME280;13016;52.162;21.034;2022-12-29T13:27:26;99850.13;;;14.07;44.74
24996;BME280;13016;52.162;21.034;2022-12-29T13:38:35;99850.02;;;14.04;44.72
24996;BME280;13016;52.162;21.034;2022-12-29T13:41:11;99854.62;;;14.02;44.76
24996;BME280;13016;52.162;21.034;2022-12-29T13:43:40;99849.86;;;13.96;44.61
24996;BME280;13016;52.162;21.034;2022-12-29T13:46:15;99852.16;;;13.85;44.84
24996;BME280;13016;52.162;21.034;2022-12-29T13:49:01;99844.73;;;13.63;45.20
24996;BME280;13016;52.162;21.034;2022-12-29T13:51:28;99849.11;;;14.00;45.38
24996;BME280;13016;52.162;21.034;2022-12-29T14:10:50;99864.95;;;13.98;44.48
24996;BME280;13016;52.162;21.034;2022-12-29T14:13:23;99864.54;;;13.92;45.01
24996;BME280;13016;52.162;21.034;2022-12-29T14:15:54;99865.69;;;13.82;44.87
24996;BME280;13016;52.162;21.034;2022-12-29T14:18:28;99859.95;;;13.81;44.95
24996;BME280;13016;52.162;21.034;2022-12-29T14:23:41;99866.13;;;13.94;45.15
24996;BME280;13016;52.162;21.034;2022-12-29T14:28:52;99870.32;;;14.01;45.10
24996;BME280;13016;52.162;21.034;2022-12-29T14:36:42;99852.77;;;13.97;45.15
24996;BME280;13016;52.162;21.034;2022-12-29T14:45:00;99842.40;;;13.70;45.18
24996;BME280;13016;52.162;21.034;2022-12-29T14:47:33;99844.17;;;13.81;45.43
24996;BME280;13016;52.162;21.034;2022-12-29T14:50:21;99845.73;;;13.90;45.63
24996;BME280;13016;52.162;21.034;2022-12-29T14:53:04;99847.64;;;13.99;45.44
24996;BME280;13016;52.162;21.034;2022-12-29T14:58:45;99847.75;;;14.02;45.36
24996;BME280;13016;52.162;21.034;2022-12-29T15:01:22;99855.32;;;14.19;45.06
24996;BME280;13016;52.162;21.034;2022-12-29T15:03:51;99854.60;;;14.01;44.56
24996;BME280;13016;52.162;21.034;2022-12-29T15:06:18;99850.77;;;13.95;45.29
24996;BME280;13016;52.162;21.034;2022-12-29T15:09:01;99847.02;;;13.70;45.26
24996;BME280;13016;52.162;21.034;2022-12-29T15:11:44;99847.78;;;13.72;45.78
24996;BME280;13016;52.162;21.034;2022-12-29T15:14:35;99849.67;;;13.94;45.96
24996;BME280;13016;52.162;21.034;2022-12-29T15:17:01;99854.16;;;13.99;45.84
24996;BME280;13016;52.162;21.034;2022-12-29T15:19:33;99856.30;;;13.99;45.66
24996;BME280;13016;52.162;21.034;2022-12-29T15:22:00;99848.24;;;14.02;45.74
24996;BME280;13016;52.162;21.034;2022-12-29T15:24:25;99855.24;;;13.95;45.63
24996;BME280;13016;52.162;21.034;2022-12-29T15:26:52;99867.02;;;13.98;45.98
24996;BME280;13016;52.162;21.034;2022-12-29T15:29:30;99862.83;;;14.06;46.00
24996;BME280;13016;52.162;21.034;2022-12-29T15:40:32;99860.25;;;13.71;46.02
24996;BME280;13016;52.162;21.034;2022-12-29T15:45:39;99858.98;;;13.58;46.38
24996;BME280;13016;52.162;21.034;2022-12-29T15:48:13;99856.55;;;13.62;46.64
24996;BME280;13016;52.162;21.034;2022-12-29T15:50:41;99865.73;;;13.73;46.46
24996;BME280;13016;52.162;21.034;2022-12-29T15:53:19;99864.88;;;13.86;46.50
24996;BME280;13016;52.162;21.034;2022-12-29T15:55:49;99860.21;;;13.93;46.55
24996;BME280;13016;52.162;21.034;2022-12-29T15:58:40;99856.27;;;13.87;46.07
24996;BME280;13016;52.162;21.034;2022-12-29T16:01:20;99853.45;;;13.78;46.29
24996;BME280;13016;52.162;21.034;2022-12-29T16:03:50;99858.50;;;13.77;46.47
24996;BME280;13016;52.162;21.034;2022-12-29T16:06:37;99857.94;;;13.71;46.41
24996;BME280;13016;52.162;21.034;2022-12-29T16:09:05;99853.20;;;13.38;47.01
24996;BME280;13016;52.162;21.034;2022-12-29T16:11:37;99855.73;;;13.48;47.39
24996;BME280;13016;52.162;21.034;2022-12-29T16:14:09;99853.08;;;13.57;46.99
24996;BME280;13016;52.162;21.034;2022-12-29T16:16:39;99854.86;;;13.57;47.13
24996;BME280;13016;52.162;21.034;2022-12-29T16:19:24;99860.98;;;13.66;47.13
24996;BME280;13016;52.162;21.034;2022-12-29T16:21:51;99859.38;;;13.54;46.98
24996;BME280;13016;52.162;21.034;2022-12-29T16:24:23;99855.31;;;13.30;47.37
24996;BME280;13016;52.162;21.034;2022-12-29T16:27:25;99861.02;;;13.33;47.73
24996;BME280;13016;52.162;21.034;2022-12-29T16:29:54;99859.65;;;13.63;47.37
24996;BME280;13016;52.162;21.034;2022-12-29T16:32:30;99857.30;;;13.48;47.14
24996;BME280;13016;52.162;21.034;2022-12-29T16:35:17;99852.17;;;13.46;47.36
24996;BME280;13016;52.162;21.034;2022-12-29T16:37:43;99853.38;;;13.42;47.40
24996;BME280;13016;52.162;21.034;2022-12-29T16:47:47;99867.94;;;13.33;47.81
24996;BME280;13016;52.162;21.034;2022-12-29T16:50:18;99867.93;;;13.27;48.10
24996;BME280;13016;52.162;21.034;2022-12-29T16:52:48;99874.96;;;13.08;48.26
24996;BME280;13016;52.162;21.034;2022-12-29T16:55:18;99878.05;;;13.16;48.22
24996;BME280;13016;52.162;21.034;2022-12-29T16:57:46;99878.75;;;13.00;48.55
24996;BME280;13016;52.162;21.034;2022-12-29T17:00:20;99875.35;;;13.00;48.73
24996;BME280;13016;52.162;21.034;2022-12-29T17:02:47;99873.31;;;13.19;48.79